Terminal Aerodrome Forecast
Issued by NWS Upton, NY

Home | Current Version | Previous Version | Text Only | Print | Product List | Glossary On
Versions: 1 2 3 4 5 6 7 8 9 10 11 12 13 14 15 16 17 18 19 20 21 22 23 24 25 26 27
000
FTUS41 KOKX 040537
TAFLGA
TAF
KLGA 040537Z 0406/0506 VRB03KT P6SM SKC
     FM041300 20008KT P6SM SKC
     FM041700 20013G19KT P6SM FEW080 SCT250
     FM042000 20015G22KT P6SM FEW080 SCT250
     FM050300 21012KT P6SM FEW070 SCT250=

USA.gov is the U.S. government's official web portal to all federal, state and local government web resources and services.